createdAt,value
2022-11-10T00:03:40.361Z,5.79
2022-11-10T00:06:10.804Z,5.91
2022-11-10T00:08:37.595Z,5.97
2022-11-10T00:11:08.302Z,6.04
2022-11-10T00:13:56.659Z,5.91
2022-11-10T00:16:42.115Z,5.74
2022-11-10T00:19:09.089Z,5.70
2022-11-10T00:21:37.286Z,5.96
2022-11-10T00:24:04.710Z,5.83
2022-11-10T00:26:31.947Z,5.64
2022-11-10T00:28:58.761Z,5.96
2022-11-10T00:31:25.537Z,5.80
2022-11-10T00:33:52.252Z,5.83
2022-11-10T00:36:19.040Z,5.80
2022-11-10T00:38:45.786Z,5.64
2022-11-10T00:41:13.183Z,5.62
2022-11-10T00:43:39.964Z,5.85
2022-11-10T00:46:06.702Z,5.78
2022-11-10T00:48:33.517Z,5.62
2022-11-10T00:51:00.270Z,5.68
2022-11-10T00:53:27.006Z,5.54
2022-11-10T00:55:53.829Z,5.79
2022-11-10T00:58:20.713Z,5.77
2022-11-10T01:00:47.621Z,5.40
2022-11-10T01:03:16.058Z,5.61
2022-11-10T01:05:43.443Z,5.90
2022-11-10T01:08:10.835Z,5.82
2022-11-10T01:10:37.644Z,5.93
2022-11-10T01:13:04.372Z,5.86
2022-11-10T01:15:31.311Z,5.93
2022-11-10T01:17:58.005Z,5.89
2022-11-10T01:20:25.862Z,6.00
2022-11-10T01:22:52.727Z,5.68
2022-11-10T01:25:19.573Z,5.78
2022-11-10T01:27:46.621Z,5.81
2022-11-10T01:30:13.444Z,5.89
2022-11-10T01:32:40.292Z,5.86
2022-11-10T01:35:08.531Z,5.79
2022-11-10T01:37:35.513Z,5.67
2022-11-10T01:40:02.689Z,5.67
2022-11-10T01:42:44.533Z,5.63
2022-11-10T01:45:23.565Z,5.87
2022-11-10T01:47:52.580Z,5.77
2022-11-10T01:50:22.123Z,5.89
2022-11-10T01:52:52.422Z,5.70
2022-11-10T01:55:19.276Z,5.70
2022-11-10T01:57:46.296Z,5.70
2022-11-10T02:00:13.410Z,5.76
2022-11-10T02:02:46.662Z,5.57
2022-11-10T02:05:13.679Z,5.56
2022-11-10T02:07:40.802Z,5.54
2022-11-10T02:10:16.263Z,5.74
2022-11-10T02:12:44.131Z,5.72
2022-11-10T02:15:14.503Z,5.54
2022-11-10T02:17:42.445Z,5.23
2022-11-10T02:20:12.224Z,5.25
2022-11-10T02:22:39.100Z,5.42
2022-11-10T02:25:06.672Z,5.40
2022-11-10T02:27:33.402Z,5.25
2022-11-10T02:30:01.767Z,5.38
2022-11-10T02:32:28.888Z,5.47
2022-11-10T02:34:55.741Z,5.22
2022-11-10T02:37:22.533Z,5.56
2022-11-10T02:39:49.265Z,5.58
2022-11-10T02:42:16.132Z,5.49
2022-11-10T02:44:43.175Z,5.54
2022-11-10T02:47:10.194Z,5.70
2022-11-10T02:49:36.914Z,5.56
2022-11-10T02:52:03.889Z,5.46
2022-11-10T02:54:30.652Z,5.42
2022-11-10T02:56:57.335Z,5.35
2022-11-10T02:59:24.076Z,5.40
2022-11-10T03:01:50.831Z,5.42
2022-11-10T03:04:17.553Z,5.56
2022-11-10T03:06:44.408Z,5.48
2022-11-10T03:09:11.242Z,5.43
2022-11-10T03:11:37.974Z,5.68
2022-11-10T03:14:04.731Z,5.66
2022-11-10T03:16:31.514Z,5.64
2022-11-10T03:18:58.225Z,5.59
2022-11-10T03:21:24.934Z,5.78
2022-11-10T03:23:51.640Z,6.01
2022-11-10T03:26:18.372Z,6.12
2022-11-10T03:28:45.080Z,5.93
2022-11-10T03:31:11.813Z,6.04
2022-11-10T03:33:38.535Z,6.03
2022-11-10T03:36:05.522Z,6.21
2022-11-10T03:38:32.214Z,6.18
2022-11-10T03:43:45.621Z,6.10
2022-11-10T03:46:12.602Z,6.10
2022-11-10T03:48:39.311Z,6.16
2022-11-10T03:51:06.193Z,6.13
2022-11-10T03:53:33.031Z,6.05
2022-11-10T03:56:04.541Z,6.21
2022-11-10T03:58:31.443Z,6.12
2022-11-10T04:00:58.236Z,6.20
2022-11-10T04:03:25.867Z,6.37
2022-11-10T04:06:11.461Z,6.25
2022-11-10T04:08:56.814Z,6.25
2022-11-10T04:11:41.915Z,6.09
2022-11-10T04:14:27.782Z,6.23
2022-11-10T04:16:55.052Z,6.22
2022-11-10T04:19:21.843Z,6.27
2022-11-10T04:21:48.719Z,6.12
2022-11-10T04:24:16.290Z,6.29
2022-11-10T04:26:44.100Z,6.27
2022-11-10T04:29:12.349Z,6.19
2022-11-10T04:31:41.090Z,6.24
2022-11-10T04:34:09.867Z,5.94
2022-11-10T04:36:39.053Z,6.24
2022-11-10T04:39:06.774Z,6.19
2022-11-10T04:41:33.960Z,6.17
2022-11-10T04:44:01.473Z,6.09
2022-11-10T04:46:32.151Z,6.11
2022-11-10T04:48:59.823Z,6.09
2022-11-10T04:51:31.497Z,6.19
2022-11-10T04:53:58.882Z,6.19
2022-11-10T04:56:26.644Z,6.17
2022-11-10T04:58:54.492Z,6.26
2022-11-10T05:01:27.577Z,6.15
2022-11-10T05:03:55.421Z,6.31
2022-11-10T05:06:22.873Z,6.21
2022-11-10T05:08:50.108Z,6.31
2022-11-10T05:11:16.960Z,6.15
2022-11-10T05:13:45.116Z,6.29
2022-11-10T05:16:12.447Z,6.28
2022-11-10T05:18:39.158Z,6.30
2022-11-10T05:21:06.084Z,6.22
2022-11-10T05:23:38.778Z,6.21
2022-11-10T05:26:16.485Z,6.31
2022-11-10T05:28:45.053Z,6.27
2022-11-10T05:31:12.644Z,6.16
2022-11-10T05:33:39.595Z,6.23
2022-11-10T05:36:07.852Z,6.33
2022-11-10T05:38:40.316Z,6.22
2022-11-10T05:41:09.793Z,6.13
2022-11-10T05:43:36.494Z,6.28
2022-11-10T05:46:03.337Z,6.22
2022-11-10T05:48:30.014Z,6.32
2022-11-10T05:50:56.692Z,6.43
2022-11-10T05:53:23.873Z,6.35
2022-11-10T05:55:50.837Z,6.26
2022-11-10T05:58:17.639Z,6.52
2022-11-10T06:00:44.327Z,6.47
2022-11-10T06:03:17.049Z,6.36
2022-11-10T06:05:44.461Z,6.53
2022-11-10T06:08:11.557Z,6.35
2022-11-10T06:10:39.196Z,6.51
2022-11-10T06:13:06.636Z,6.54
2022-11-10T06:15:33.674Z,6.52
2022-11-10T06:18:00.625Z,6.46
2022-11-10T06:20:27.432Z,6.58
2022-11-10T06:23:08.083Z,6.63
2022-11-10T06:25:36.570Z,6.43
2022-11-10T06:28:04.447Z,6.53
2022-11-10T06:30:33.736Z,6.50
2022-11-10T06:33:00.567Z,6.59
2022-11-10T06:35:27.775Z,6.59
2022-11-10T06:38:06.101Z,6.59
2022-11-10T06:40:33.845Z,6.62
2022-11-10T06:43:01.604Z,6.63
2022-11-10T06:45:28.970Z,6.66
2022-11-10T06:48:04.801Z,6.65
2022-11-10T06:50:32.222Z,6.64
2022-11-10T06:53:00.384Z,6.57
2022-11-10T06:55:27.298Z,6.62
2022-11-10T06:57:54.493Z,6.60
2022-11-10T07:00:22.193Z,6.66
2022-11-10T07:02:48.955Z,6.67
2022-11-10T07:05:15.861Z,6.72
2022-11-10T07:07:42.646Z,6.75
2022-11-10T07:10:09.687Z,6.74
2022-11-10T07:12:36.595Z,6.75
2022-11-10T07:15:03.943Z,6.86
2022-11-10T07:17:30.673Z,6.92
2022-11-10T07:19:57.521Z,6.87
2022-11-10T07:22:25.062Z,6.93
2022-11-10T07:24:51.805Z,6.94
2022-11-10T07:27:18.648Z,6.91
2022-11-10T07:29:45.449Z,6.98
2022-11-10T07:32:12.166Z,7.02
2022-11-10T07:34:38.851Z,6.97
2022-11-10T07:37:05.861Z,6.97
2022-11-10T07:39:32.608Z,6.99
2022-11-10T07:41:59.298Z,7.10
2022-11-10T07:44:27.842Z,7.22
2022-11-10T07:46:54.596Z,7.30
2022-11-10T07:49:21.382Z,7.22
2022-11-10T07:51:48.053Z,7.36
2022-11-10T07:54:14.752Z,7.46
2022-11-10T07:56:42.522Z,7.38
2022-11-10T07:59:09.392Z,7.46
2022-11-10T08:01:36.084Z,7.56
2022-11-10T08:04:02.841Z,7.49
2022-11-10T08:06:34.910Z,7.69
2022-11-10T08:09:02.832Z,7.63
2022-11-10T08:11:29.534Z,7.66
2022-11-10T08:13:56.196Z,7.51
2022-11-10T08:16:22.988Z,7.66
2022-11-10T08:18:49.720Z,7.65
2022-11-10T08:21:16.381Z,7.67
2022-11-10T08:23:43.167Z,7.70
2022-11-10T08:26:09.853Z,7.70
2022-11-10T08:28:36.623Z,7.83
2022-11-10T08:31:05.684Z,7.82
2022-11-10T08:33:33.050Z,7.77
2022-11-10T08:36:01.320Z,7.85
2022-11-10T08:38:28.051Z,7.85
2022-11-10T08:40:57.588Z,7.89
2022-11-10T08:43:25.131Z,8.00
2022-11-10T08:45:58.858Z,8.00
2022-11-10T08:48:25.711Z,8.06
2022-11-10T08:50:52.518Z,7.98
2022-11-10T08:53:22.859Z,8.29
2022-11-10T08:55:51.132Z,8.33
2022-11-10T08:58:20.096Z,8.35
2022-11-10T09:00:47.243Z,8.24
2022-11-10T09:03:20.029Z,8.08
2022-11-10T09:05:47.815Z,8.24
2022-11-10T09:08:15.583Z,8.30
2022-11-10T09:10:47.659Z,8.32
2022-11-10T09:13:16.053Z,8.29
2022-11-10T09:15:44.044Z,8.24
2022-11-10T09:18:13.325Z,8.31
2022-11-10T09:20:40.499Z,8.20
2022-11-10T09:23:09.798Z,8.26
2022-11-10T09:25:37.446Z,8.27
2022-11-10T09:28:04.714Z,8.46
2022-11-10T09:30:32.381Z,8.46
2022-11-10T09:33:00.546Z,8.33
2022-11-10T09:35:27.746Z,8.37
2022-11-10T09:37:54.525Z,8.32
2022-11-10T09:40:39.594Z,8.40
2022-11-10T09:43:14.611Z,8.37
2022-11-10T09:45:47.122Z,8.35
2022-11-10T09:48:24.670Z,8.36
2022-11-10T09:50:57.274Z,8.36
2022-11-10T09:53:47.874Z,8.43
2022-11-10T09:56:19.718Z,8.39
2022-11-10T09:58:46.926Z,8.46
2022-11-10T10:01:26.153Z,8.54
2022-11-10T10:04:16.752Z,8.54
2022-11-10T10:07:10.220Z,8.67
2022-11-10T10:10:01.235Z,8.65
2022-11-10T10:12:58.791Z,8.87
2022-11-10T10:16:02.576Z,8.89
2022-11-10T10:19:15.228Z,8.97
2022-11-10T10:21:50.461Z,9.14
2022-11-10T10:24:22.055Z,9.18
2022-11-10T10:26:55.424Z,9.16
2022-11-10T10:29:49.460Z,9.23
2022-11-10T10:32:17.944Z,9.22
2022-11-10T10:34:46.508Z,9.35
2022-11-10T10:37:22.650Z,9.37
2022-11-10T10:39:52.287Z,9.48
2022-11-10T10:42:31.447Z,9.35
2022-11-10T10:45:27.733Z,9.30
2022-11-10T10:47:57.179Z,9.57
2022-11-10T10:50:28.772Z,9.72
2022-11-10T10:53:17.811Z,9.76
2022-11-10T10:58:26.520Z,9.78
2022-11-10T11:01:01.620Z,9.71
2022-11-10T11:03:52.122Z,9.63
2022-11-10T11:06:33.443Z,9.93
2022-11-10T11:09:15.993Z,9.91
2022-11-10T11:11:45.489Z,10.01
2022-11-10T11:14:27.376Z,9.96
2022-11-10T11:16:59.641Z,9.78
2022-11-10T11:19:37.903Z,9.92
2022-11-10T11:22:26.448Z,10.03
2022-11-10T11:25:05.267Z,9.89
2022-11-10T11:27:32.013Z,10.04
2022-11-10T11:30:06.353Z,10.00
2022-11-10T11:32:45.346Z,10.22
2022-11-10T11:35:31.889Z,10.03
2022-11-10T11:38:16.014Z,10.12
2022-11-10T11:40:47.701Z,10.02
2022-11-10T11:43:45.453Z,9.82
2022-11-10T11:46:19.094Z,9.83
2022-11-10T11:49:21.340Z,9.72
2022-11-10T11:51:53.898Z,9.67
2022-11-10T11:54:29.845Z,9.55
2022-11-10T11:57:16.075Z,9.48
2022-11-10T11:59:45.510Z,9.52
2022-11-10T12:02:24.175Z,9.59
2022-11-10T12:05:20.322Z,9.55
2022-11-10T12:08:11.621Z,9.66
2022-11-10T12:11:32.450Z,9.74
2022-11-10T12:14:25.666Z,9.78
2022-11-10T12:17:08.889Z,9.74
2022-11-10T12:20:11.720Z,9.88
2022-11-10T12:23:10.924Z,9.83
2022-11-10T12:26:06.921Z,9.83
2022-11-10T12:28:39.824Z,9.93
2022-11-10T12:31:15.548Z,9.99
2022-11-10T12:33:50.052Z,9.91
2022-11-10T12:36:20.406Z,9.90
2022-11-10T12:39:11.885Z,10.05
2022-11-10T12:41:57.580Z,10.16
2022-11-10T12:44:32.228Z,10.10
2022-11-10T12:47:05.346Z,10.05
2022-11-10T12:49:47.420Z,10.25
2022-11-10T12:52:24.547Z,10.32
2022-11-10T12:54:51.496Z,10.30
2022-11-10T12:57:22.599Z,10.41
2022-11-10T13:00:05.445Z,10.34
2022-11-10T13:02:40.583Z,10.50
2022-11-10T13:05:24.741Z,10.70
2022-11-10T13:08:06.464Z,10.43
2022-11-10T13:10:33.321Z,10.48
2022-11-10T13:13:05.763Z,10.55
2022-11-10T13:15:35.554Z,10.73
2022-11-10T13:18:02.830Z,10.60
2022-11-10T13:20:50.214Z,10.69
2022-11-10T13:23:29.761Z,10.80
2022-11-10T13:26:11.365Z,10.82
2022-11-10T13:28:49.171Z,10.94
2022-11-10T13:31:28.038Z,10.95
2022-11-10T13:34:26.992Z,10.97
2022-11-10T13:36:53.765Z,10.93
2022-11-10T13:39:20.701Z,10.97
2022-11-10T13:41:54.391Z,10.94
2022-11-10T13:44:36.358Z,10.80
2022-11-10T13:47:35.151Z,10.88
2022-11-10T13:50:08.703Z,10.73
2022-11-10T13:53:00.131Z,10.82
2022-11-10T13:55:45.247Z,10.72
2022-11-10T13:58:23.312Z,10.59
2022-11-10T14:01:11.321Z,10.59
2022-11-10T14:03:47.901Z,10.48
2022-11-10T14:06:20.593Z,10.57
2022-11-10T14:09:03.148Z,10.48
2022-11-10T14:11:53.447Z,10.45
2022-11-10T14:14:40.823Z,10.40
2022-11-10T14:17:18.414Z,10.30
2022-11-10T14:19:46.177Z,10.32
2022-11-10T14:22:28.089Z,10.36
2022-11-10T14:25:04.487Z,10.34
2022-11-10T14:27:34.528Z,10.43
2022-11-10T14:30:21.893Z,10.38
2022-11-10T14:33:09.273Z,10.36
2022-11-10T14:35:48.962Z,10.14
2022-11-10T14:38:21.231Z,10.26
2022-11-10T14:40:49.313Z,10.35
2022-11-10T14:43:28.166Z,10.22
2022-11-10T14:45:55.037Z,10.16
2022-11-10T14:48:26.640Z,10.12
2022-11-10T14:50:54.045Z,10.13
2022-11-10T14:53:23.451Z,10.12
2022-11-10T14:55:54.708Z,10.11
2022-11-10T14:58:22.312Z,10.10
2022-11-10T15:00:49.756Z,10.00
2022-11-10T15:03:31.440Z,9.84
2022-11-10T15:05:58.328Z,9.93
2022-11-10T15:08:26.696Z,9.91
2022-11-10T15:10:53.808Z,9.94
2022-11-10T15:13:36.126Z,9.90
2022-11-10T15:16:26.254Z,9.82
2022-11-10T15:18:55.029Z,9.65
2022-11-10T15:21:34.300Z,9.80
2022-11-10T15:24:05.694Z,9.71
2022-11-10T15:26:38.495Z,9.64
2022-11-10T15:29:05.483Z,9.85
2022-11-10T15:31:34.070Z,9.80
2022-11-10T15:34:04.632Z,9.80
2022-11-10T15:36:32.663Z,9.55
2022-11-10T15:39:05.537Z,9.70
2022-11-10T15:41:36.352Z,9.49
2022-11-10T15:44:22.251Z,9.63
2022-11-10T15:46:53.836Z,9.50
2022-11-10T15:49:25.589Z,9.36
2022-11-10T15:51:56.987Z,9.32
2022-11-10T15:54:27.113Z,9.17
2022-11-10T15:56:53.854Z,9.13
2022-11-10T15:59:20.657Z,8.83
2022-11-10T16:01:47.506Z,8.53
2022-11-10T16:04:14.242Z,8.42
2022-11-10T16:06:41.156Z,8.28
2022-11-10T16:09:11.202Z,8.09
2022-11-10T16:11:38.205Z,8.16
2022-11-10T16:14:05.902Z,7.89
2022-11-10T16:16:32.651Z,7.89
2022-11-10T16:18:59.434Z,7.91
2022-11-10T16:21:26.517Z,7.85
2022-11-10T16:23:53.473Z,7.75
2022-11-10T16:26:23.901Z,7.52
2022-11-10T16:28:50.797Z,7.67
2022-11-10T16:31:19.522Z,7.54
2022-11-10T16:33:47.104Z,7.53
2022-11-10T16:36:28.036Z,7.39
2022-11-10T16:38:55.631Z,7.35
2022-11-10T16:41:23.062Z,7.28
2022-11-10T16:43:49.949Z,7.24
2022-11-10T16:46:22.984Z,7.22
2022-11-10T16:48:52.869Z,7.24
2022-11-10T16:51:28.832Z,7.08
2022-11-10T16:53:56.035Z,7.11
2022-11-10T16:56:23.269Z,7.24
2022-11-10T16:58:51.117Z,7.24
2022-11-10T17:01:22.596Z,7.19
2022-11-10T17:03:53.461Z,6.86
2022-11-10T17:06:22.041Z,7.01
2022-11-10T17:08:52.417Z,6.92
2022-11-10T17:11:19.498Z,6.89
2022-11-10T17:13:46.381Z,6.86
2022-11-10T17:16:29.872Z,6.86
2022-11-10T17:18:59.135Z,6.83
2022-11-10T17:21:32.493Z,6.76
2022-11-10T17:24:00.958Z,6.77
2022-11-10T17:26:29.214Z,6.61
2022-11-10T17:28:57.115Z,6.51
2022-11-10T17:31:24.413Z,6.55
2022-11-10T17:33:51.537Z,6.50
2022-11-10T17:36:21.701Z,6.46
2022-11-10T17:38:49.162Z,6.46
2022-11-10T17:41:23.785Z,6.48
2022-11-10T17:43:50.967Z,6.35
2022-11-10T17:46:17.807Z,6.42
2022-11-10T17:48:45.694Z,6.42
2022-11-10T17:51:21.602Z,6.50
2022-11-10T17:53:50.822Z,6.46
2022-11-10T17:56:18.266Z,6.33
2022-11-10T17:58:45.362Z,6.27
2022-11-10T18:01:16.695Z,6.16
2022-11-10T18:03:46.744Z,6.32
2022-11-10T18:06:15.177Z,6.32
2022-11-10T18:08:42.891Z,6.32
2022-11-10T18:11:12.864Z,6.19
2022-11-10T18:13:42.217Z,6.20
2022-11-10T18:16:12.070Z,6.18
2022-11-10T18:18:39.615Z,6.19
2022-11-10T18:21:09.211Z,6.20
2022-11-10T18:23:36.522Z,6.15
2022-11-10T18:26:14.062Z,6.06
2022-11-10T18:28:42.309Z,6.04
2022-11-10T18:31:13.231Z,5.97
2022-11-10T18:33:41.149Z,5.99
2022-11-10T18:36:09.350Z,5.98
2022-11-10T18:38:36.544Z,5.92
2022-11-10T18:41:28.193Z,5.86
2022-11-10T18:43:55.782Z,5.94
2022-11-10T18:46:23.236Z,5.89
2022-11-10T18:48:50.868Z,5.82
2022-11-10T18:51:18.472Z,5.75
2022-11-10T18:53:45.657Z,5.69
2022-11-10T18:56:14.979Z,5.73
2022-11-10T18:58:43.264Z,5.72
2022-11-10T19:01:12.117Z,5.71
2022-11-10T19:03:39.717Z,5.67
2022-11-10T19:06:07.818Z,5.69
2022-11-10T19:08:35.261Z,5.65
2022-11-10T19:11:07.527Z,5.68
2022-11-10T19:13:35.553Z,5.68
2022-11-10T19:16:08.562Z,5.80
2022-11-10T19:18:39.027Z,5.85
2022-11-10T19:21:14.564Z,5.76
2022-11-10T19:23:42.884Z,5.86
2022-11-10T19:26:21.885Z,5.90
2022-11-10T19:28:50.407Z,5.95
2022-11-10T19:31:23.100Z,5.93
2022-11-10T19:33:54.322Z,5.94
2022-11-10T19:36:24.183Z,5.78
2022-11-10T19:38:53.662Z,5.57
2022-11-10T19:41:24.044Z,5.51
2022-11-10T19:43:50.980Z,5.41
2022-11-10T19:46:24.682Z,5.43
2022-11-10T19:48:53.561Z,5.29
2022-11-10T19:51:22.872Z,5.16
2022-11-10T19:53:58.181Z,5.06
2022-11-10T19:56:31.469Z,4.90
2022-11-10T19:58:59.740Z,4.86
2022-11-10T20:01:27.879Z,4.76
2022-11-10T20:03:55.437Z,4.84
2022-11-10T20:06:24.483Z,4.77
2022-11-10T20:08:51.933Z,4.51
2022-11-10T20:11:26.061Z,4.45
2022-11-10T20:13:56.557Z,4.37
2022-11-10T20:16:24.181Z,4.34
2022-11-10T20:18:52.331Z,4.31
2022-11-10T20:21:23.903Z,4.24
2022-11-10T20:23:55.710Z,4.11
2022-11-10T20:26:24.781Z,4.00
2022-11-10T20:28:53.999Z,3.88
2022-11-10T20:31:24.773Z,3.94
2022-11-10T20:33:54.479Z,3.92
2022-11-10T20:36:31.762Z,3.84
2022-11-10T20:39:00.779Z,3.91
2022-11-10T20:41:30.007Z,3.75
2022-11-10T20:43:57.432Z,3.73
2022-11-10T20:46:52.773Z,3.86
2022-11-10T20:49:12.221Z,3.96
2022-11-10T20:51:41.049Z,3.91
2022-11-10T20:54:08.992Z,3.74
2022-11-10T20:56:36.037Z,3.79
2022-11-10T20:59:02.953Z,3.94
2022-11-10T21:01:31.009Z,3.94
2022-11-10T21:03:58.621Z,3.83
2022-11-10T21:06:25.765Z,3.90
2022-11-10T21:08:54.152Z,3.92
2022-11-10T21:11:40.160Z,3.99
2022-11-10T21:14:07.312Z,4.04
2022-11-10T21:16:34.390Z,3.86
2022-11-10T21:19:01.784Z,4.05
2022-11-10T21:21:34.691Z,4.10
2022-11-10T21:24:04.131Z,4.17
2022-11-10T21:26:32.774Z,4.25
2022-11-10T21:28:59.777Z,4.16
2022-11-10T21:31:26.651Z,4.17
2022-11-10T21:33:59.436Z,4.29
2022-11-10T21:36:29.481Z,4.31
2022-11-10T21:38:57.856Z,4.34
2022-11-10T21:41:25.401Z,4.37
2022-11-10T21:43:52.217Z,4.31
2022-11-10T21:46:19.413Z,4.37
2022-11-10T21:48:46.152Z,4.32
2022-11-10T21:51:14.499Z,4.33
2022-11-10T21:53:42.034Z,4.30
2022-11-10T21:56:10.382Z,4.37
2022-11-10T21:58:37.894Z,4.39
2022-11-10T22:01:06.238Z,4.38
2022-11-10T22:03:34.586Z,4.26
2022-11-10T22:06:10.620Z,4.39
2022-11-10T22:08:38.629Z,4.34
2022-11-10T22:11:24.812Z,4.34
2022-11-10T22:14:10.462Z,4.34
2022-11-10T22:17:06.670Z,4.42
2022-11-10T22:19:35.255Z,4.48
2022-11-10T22:22:03.931Z,4.46
2022-11-10T22:24:30.840Z,4.41
2022-11-10T22:26:59.880Z,4.49
2022-11-10T22:29:31.837Z,4.53
2022-11-10T22:32:02.629Z,4.60
2022-11-10T22:34:29.836Z,4.56
2022-11-10T22:36:57.228Z,4.60
2022-11-10T22:39:43.931Z,4.71
2022-11-10T22:42:31.942Z,4.61
2022-11-10T22:44:58.817Z,4.65
2022-11-10T22:47:25.623Z,4.55
2022-11-10T22:49:52.320Z,4.63
2022-11-10T22:52:19.059Z,4.71
2022-11-10T22:54:45.800Z,4.72
2022-11-10T22:57:12.571Z,4.52
2022-11-10T22:59:39.257Z,4.76
2022-11-10T23:02:05.959Z,4.70
2022-11-10T23:04:32.738Z,4.87
2022-11-10T23:06:59.499Z,4.71
2022-11-10T23:09:26.260Z,4.49
2022-11-10T23:11:52.959Z,4.67
2022-11-10T23:14:19.651Z,4.56
2022-11-10T23:16:46.418Z,4.44
2022-11-10T23:19:13.188Z,4.27
2022-11-10T23:21:40.005Z,4.19
2022-11-10T23:24:07.098Z,4.06
2022-11-10T23:26:34.989Z,4.10
2022-11-10T23:29:01.783Z,4.18
2022-11-10T23:31:28.812Z,4.13
2022-11-10T23:33:56.771Z,4.15
2022-11-10T23:36:25.448Z,4.09
2022-11-10T23:38:52.431Z,4.06
2022-11-10T23:41:21.182Z,4.11
2022-11-10T23:43:47.980Z,4.29
2022-11-10T23:46:15.320Z,4.14
2022-11-10T23:48:42.622Z,4.22
2022-11-10T23:51:11.843Z,4.37
2022-11-10T23:53:38.662Z,4.44
2022-11-10T23:56:09.005Z,4.48
2022-11-10T23:58:35.840Z,4.53
